createdAt,value
2022-08-05T00:02:26.829Z,5.95
2022-08-05T00:04:56.047Z,6.75
2022-08-05T00:07:58.799Z,12.07
2022-08-05T00:10:11.237Z,6.18
2022-08-05T00:12:56.053Z,9.65
2022-08-05T00:18:09.703Z,9.70
2022-08-05T00:20:48.795Z,5.93
2022-08-05T00:23:16.838Z,5.90
2022-08-05T00:25:46.191Z,7.25
2022-08-05T00:28:13.011Z,5.47
2022-08-05T00:30:39.550Z,10.85
2022-08-05T00:33:07.768Z,6.20
2022-08-05T00:36:16.290Z,4.45
2022-08-05T00:38:42.236Z,7.00
2022-08-05T00:41:11.664Z,8.55
2022-08-05T00:43:47.101Z,7.88
2022-08-05T00:46:16.437Z,7.55
2022-08-05T00:48:50.602Z,5.82
2022-08-05T00:51:50.036Z,5.55
2022-08-05T00:54:05.855Z,6.55
2022-08-05T00:56:32.384Z,11.10
2022-08-05T00:58:59.334Z,3.10
2022-08-05T01:01:48.104Z,7.80
2022-08-05T01:04:13.912Z,7.88
2022-08-05T01:06:40.897Z,6.65
2022-08-05T01:09:11.527Z,7.80
2022-08-05T01:11:39.536Z,6.28
2022-08-05T01:14:09.785Z,8.10
2022-08-05T01:16:40.268Z,7.35
2022-08-05T01:19:16.165Z,6.90
2022-08-05T01:22:00.566Z,7.95
2022-08-05T01:24:35.739Z,4.45
2022-08-05T01:27:19.221Z,8.27
2022-08-05T01:29:52.541Z,7.97
2022-08-05T01:32:22.626Z,9.73
2022-08-05T01:34:51.065Z,10.20
2022-08-05T01:37:24.652Z,6.93
2022-08-05T01:39:54.924Z,8.27
2022-08-05T01:42:26.626Z,8.90
2022-08-05T01:44:56.017Z,9.10
2022-08-05T01:47:24.475Z,6.82
2022-08-05T01:50:06.820Z,9.80
2022-08-05T01:52:34.650Z,10.65
2022-08-05T01:55:02.135Z,11.00
2022-08-05T01:58:29.708Z,10.90
2022-08-05T02:00:21.033Z,5.55
2022-08-05T02:03:00.022Z,7.82
2022-08-05T02:05:34.233Z,7.45
2022-08-05T02:08:01.975Z,8.30
2022-08-05T02:10:34.879Z,5.40
2022-08-05T02:13:03.135Z,5.55
2022-08-05T02:15:34.933Z,6.35
2022-08-05T02:18:31.408Z,7.55
2022-08-05T02:20:53.707Z,7.32
2022-08-05T02:23:29.121Z,8.65
2022-08-05T02:26:02.635Z,7.70
2022-08-05T02:28:33.085Z,5.85
2022-08-05T02:31:07.604Z,6.88
2022-08-05T02:33:38.765Z,7.93
2022-08-05T02:36:09.439Z,7.65
2022-08-05T02:38:36.322Z,8.02
2022-08-05T02:41:14.780Z,7.43
2022-08-05T02:44:02.380Z,6.32
2022-08-05T02:46:33.317Z,6.57
2022-08-05T02:49:01.270Z,6.20
2022-08-05T02:51:37.817Z,4.60
2022-08-05T02:54:35.668Z,6.30
2022-08-05T02:57:01.977Z,6.75
2022-08-05T02:59:29.800Z,7.78
2022-08-05T03:02:17.759Z,5.20
2022-08-05T03:04:44.342Z,7.70
2022-08-05T03:07:17.588Z,6.15
2022-08-05T03:09:57.848Z,7.80
2022-08-05T03:12:30.778Z,6.65
2022-08-05T03:14:57.307Z,6.60
2022-08-05T03:17:25.466Z,6.00
2022-08-05T03:19:53.796Z,7.25
2022-08-05T03:22:32.223Z,5.50
2022-08-05T03:25:02.248Z,7.55
2022-08-05T03:27:59.549Z,8.80
2022-08-05T03:30:30.236Z,7.65
2022-08-05T03:33:02.868Z,8.55
2022-08-05T03:35:29.917Z,7.20
2022-08-05T03:38:02.610Z,7.47
2022-08-05T03:40:31.453Z,6.95
2022-08-05T03:42:58.848Z,7.55
2022-08-05T03:45:27.062Z,11.43
2022-08-05T03:47:57.224Z,7.82
2022-08-05T03:50:28.893Z,8.02
2022-08-05T03:55:34.547Z,5.07
2022-08-05T03:56:12.148Z,7.85
2022-08-05T03:58:37.961Z,6.65
2022-08-05T04:01:11.091Z,8.20
2022-08-05T04:03:39.574Z,6.57
2022-08-05T04:06:08.744Z,8.95
2022-08-05T04:08:36.751Z,11.65
2022-08-05T04:11:04.082Z,6.03
2022-08-05T04:13:51.376Z,7.65
2022-08-05T04:16:24.174Z,8.35
2022-08-05T04:18:54.358Z,11.50
2022-08-05T04:22:10.284Z,6.18
2022-08-05T04:24:19.195Z,6.05
2022-08-05T04:26:49.212Z,11.35
2022-08-05T04:29:15.676Z,9.15
2022-08-05T04:31:43.017Z,6.63
2022-08-05T04:34:18.424Z,6.25
2022-08-05T04:36:50.221Z,7.35
2022-08-05T04:39:17.058Z,8.20
2022-08-05T04:41:44.708Z,6.93
2022-08-05T04:44:12.274Z,7.78
2022-08-05T04:46:38.847Z,4.15
2022-08-05T04:49:05.474Z,7.43
2022-08-05T04:51:38.971Z,5.20
2022-08-05T04:54:06.859Z,6.80
2022-08-05T04:56:37.089Z,5.47
2022-08-05T04:59:17.452Z,5.32
2022-08-05T05:02:07.754Z,7.60
2022-08-05T05:04:38.301Z,6.00
2022-08-05T05:07:10.445Z,3.90
2022-08-05T05:09:38.307Z,3.30
2022-08-05T05:12:05.220Z,4.55
2022-08-05T05:14:33.029Z,3.42
2022-08-05T05:17:03.278Z,5.03
2022-08-05T05:19:36.514Z,7.00
2022-08-05T05:22:23.817Z,8.90
2022-08-05T05:24:57.214Z,3.75
2022-08-05T05:27:26.252Z,4.93
2022-08-05T05:30:15.410Z,4.72
2022-08-05T05:32:56.668Z,3.53
2022-08-05T05:35:23.265Z,3.70
2022-08-05T05:37:59.625Z,5.93
2022-08-05T05:40:30.209Z,2.30
2022-08-05T05:42:59.481Z,3.83
2022-08-05T05:45:26.127Z,6.43
2022-08-05T05:48:07.820Z,2.20
2022-08-05T05:50:41.323Z,2.70
2022-08-05T05:53:21.931Z,5.22
2022-08-05T05:55:52.531Z,3.67
2022-08-05T05:58:30.365Z,5.55
2022-08-05T06:01:02.205Z,3.72
2022-08-05T06:04:01.161Z,3.40
2022-08-05T06:06:27.953Z,4.70
2022-08-05T06:08:57.808Z,2.28
2022-08-05T06:11:25.924Z,4.57
2022-08-05T06:13:54.057Z,2.55
2022-08-05T06:16:29.202Z,3.47
2022-08-05T06:19:00.850Z,4.80
2022-08-05T06:21:35.662Z,3.97
2022-08-05T06:24:04.098Z,4.05
2022-08-05T06:26:33.764Z,3.03
2022-08-05T06:29:03.685Z,3.28
2022-08-05T06:31:33.763Z,2.92
2022-08-05T06:34:06.985Z,3.88
2022-08-05T06:36:37.345Z,2.60
2022-08-05T06:39:21.849Z,3.15
2022-08-05T06:41:52.571Z,5.65
2022-08-05T06:44:19.108Z,3.17
2022-08-05T06:46:50.581Z,3.22
2022-08-05T06:49:17.511Z,3.75
2022-08-05T06:51:45.534Z,3.05
2022-08-05T06:54:19.268Z,1.00
2022-08-05T06:56:54.683Z,0.88
2022-08-05T06:59:21.758Z,1.73
2022-08-05T07:01:48.968Z,3.50
2022-08-05T07:04:19.666Z,2.83
2022-08-05T07:06:46.163Z,2.85
2022-08-05T07:09:17.091Z,3.72
2022-08-05T07:11:49.568Z,2.38
2022-08-05T07:14:38.229Z,3.03
2022-08-05T07:18:00.894Z,1.25
2022-08-05T07:22:42.138Z,2.10
2022-08-05T07:25:22.130Z,3.05
2022-08-05T07:27:58.398Z,1.00
2022-08-05T07:30:32.607Z,1.58
2022-08-05T07:33:00.528Z,0.82
2022-08-05T07:35:56.037Z,2.00
2022-08-05T07:38:32.581Z,0.60
2022-08-05T07:41:16.791Z,3.33
2022-08-05T07:43:47.300Z,1.63
2022-08-05T07:46:24.446Z,2.22
2022-08-05T07:49:02.709Z,5.10
2022-08-05T07:51:37.268Z,2.17
2022-08-05T07:54:09.648Z,2.15
2022-08-05T07:57:00.475Z,3.28
2022-08-05T07:59:31.015Z,3.15
2022-08-05T08:02:16.996Z,1.73
2022-08-05T08:04:45.124Z,2.30
2022-08-05T08:07:11.936Z,0.63
2022-08-05T08:09:38.506Z,1.35
2022-08-05T08:12:14.341Z,0.98
2022-08-05T08:14:51.706Z,1.02
2022-08-05T08:17:19.804Z,1.63
2022-08-05T08:20:44.087Z,1.80
2022-08-05T08:22:35.116Z,1.05
2022-08-05T08:25:02.763Z,1.73
2022-08-05T08:27:31.463Z,0.73
2022-08-05T08:30:29.688Z,1.95
2022-08-05T08:32:55.487Z,0.57
2022-08-05T08:35:26.563Z,0.52
2022-08-05T08:37:54.461Z,0.73
2022-08-05T08:40:23.896Z,1.15
2022-08-05T08:42:52.580Z,1.23
2022-08-05T08:45:27.157Z,1.02
2022-08-05T08:48:11.718Z,1.30
2022-08-05T08:51:03.615Z,1.17
2022-08-05T08:53:28.870Z,0.80
2022-08-05T08:56:04.048Z,1.35
2022-08-05T08:58:43.455Z,1.92
2022-08-05T09:01:16.355Z,0.75
2022-08-05T09:03:45.721Z,0.73
2022-08-05T09:06:15.673Z,0.77
2022-08-05T09:08:45.049Z,1.63
2022-08-05T09:11:13.889Z,1.40
2022-08-05T09:14:10.328Z,1.02
2022-08-05T09:16:27.770Z,0.75
2022-08-05T09:18:55.844Z,2.95
2022-08-05T09:22:22.326Z,3.05
2022-08-05T09:24:15.438Z,1.90
2022-08-05T09:26:43.669Z,0.88
2022-08-05T09:29:10.849Z,1.45
2022-08-05T09:32:42.090Z,0.20
2022-08-05T09:34:49.225Z,2.22
2022-08-05T09:38:16.886Z,2.38
2022-08-05T09:40:06.746Z,0.32
2022-08-05T09:42:39.255Z,1.08
2022-08-05T09:46:04.895Z,2.25
2022-08-05T09:47:56.098Z,1.83
2022-08-05T09:50:38.100Z,2.17
2022-08-05T09:53:13.071Z,1.95
2022-08-05T09:56:03.813Z,1.50
2022-08-05T09:58:31.796Z,2.30
2022-08-05T10:00:59.594Z,2.28
2022-08-05T10:03:57.006Z,4.00
2022-08-05T10:06:19.489Z,5.32
2022-08-05T10:08:50.427Z,0.93
2022-08-05T10:11:20.617Z,1.25
2022-08-05T10:13:49.199Z,4.75
2022-08-05T10:16:30.321Z,0.65
2022-08-05T10:18:59.152Z,1.85
2022-08-05T10:21:35.384Z,1.45
2022-08-05T10:24:10.864Z,1.90
2022-08-05T10:26:37.869Z,1.23
2022-08-05T10:29:23.477Z,2.22
2022-08-05T10:32:52.142Z,1.50
2022-08-05T10:34:37.609Z,1.75
2022-08-05T10:37:11.053Z,1.60
2022-08-05T10:39:59.214Z,2.67
2022-08-05T10:42:34.688Z,2.65
2022-08-05T10:45:01.854Z,1.70
2022-08-05T10:48:30.176Z,0.70
2022-08-05T10:50:54.131Z,1.90
2022-08-05T10:53:34.639Z,4.30
2022-08-05T10:56:14.933Z,4.88
2022-08-05T10:58:50.528Z,2.08
2022-08-05T11:01:28.076Z,4.38
2022-08-05T11:04:07.051Z,1.77
2022-08-05T11:06:34.199Z,1.73
2022-08-05T11:09:16.278Z,1.75
2022-08-05T11:11:52.095Z,0.30
2022-08-05T11:14:42.873Z,0.90
2022-08-05T11:18:00.279Z,2.88
2022-08-05T11:20:34.372Z,1.35
2022-08-05T11:23:21.538Z,1.15
2022-08-05T11:26:05.627Z,2.90
2022-08-05T11:28:53.192Z,2.38
2022-08-05T11:31:54.322Z,1.60
2022-08-05T11:34:14.718Z,1.75
2022-08-05T11:36:47.245Z,0.90
2022-08-05T11:39:38.383Z,1.15
2022-08-05T11:42:08.159Z,2.17
2022-08-05T11:44:52.966Z,1.33
2022-08-05T11:47:22.079Z,1.67
2022-08-05T11:50:08.388Z,2.03
2022-08-05T11:52:34.977Z,3.83
2022-08-05T11:55:07.574Z,1.20
2022-08-05T11:58:08.467Z,1.33
2022-08-05T12:00:28.829Z,3.45
2022-08-05T12:02:56.618Z,1.20
2022-08-05T12:05:36.444Z,2.05
2022-08-05T12:08:10.872Z,0.40
2022-08-05T12:10:45.126Z,1.80
2022-08-05T12:13:17.046Z,0.82
2022-08-05T12:15:50.054Z,3.30
2022-08-05T12:18:17.678Z,0.40
2022-08-05T12:20:47.190Z,1.30
2022-08-05T12:23:14.384Z,1.73
2022-08-05T12:25:50.619Z,1.25
2022-08-05T12:28:31.501Z,1.95
2022-08-05T12:30:58.125Z,0.43
2022-08-05T12:33:36.499Z,0.95
2022-08-05T12:36:08.054Z,2.25
2022-08-05T12:38:36.275Z,0.45
2022-08-05T12:41:03.278Z,1.55
2022-08-05T12:43:31.999Z,1.25
2022-08-05T12:45:58.925Z,1.63
2022-08-05T12:48:32.668Z,0.20
2022-08-05T12:52:10.719Z,0.88
2022-08-05T12:54:00.278Z,0.17
2022-08-05T12:56:35.331Z,3.70
2022-08-05T12:59:23.867Z,1.25
2022-08-05T13:01:59.787Z,1.08
2022-08-05T13:04:33.353Z,0.57
2022-08-05T13:07:16.045Z,1.25
2022-08-05T13:09:50.867Z,0.55
2022-08-05T13:12:28.432Z,0.80
2022-08-05T13:15:05.649Z,3.47
2022-08-05T13:17:42.003Z,2.53
2022-08-05T13:22:36.623Z,0.90
2022-08-05T13:25:05.678Z,2.47
2022-08-05T13:27:38.384Z,0.77
2022-08-05T13:30:34.712Z,0.82
2022-08-05T13:32:54.882Z,1.33
2022-08-05T13:35:31.386Z,1.10
2022-08-05T13:38:12.379Z,1.23
2022-08-05T13:40:50.058Z,0.80
2022-08-05T13:43:22.176Z,1.35
2022-08-05T13:45:50.897Z,1.83
2022-08-05T13:48:57.993Z,2.30
2022-08-05T13:51:07.713Z,0.98
2022-08-05T13:53:47.746Z,1.65
2022-08-05T13:56:18.823Z,2.47
2022-08-05T13:58:52.836Z,3.17
2022-08-05T14:01:27.440Z,1.52
2022-08-05T14:04:26.932Z,1.20
2022-08-05T14:09:46.221Z,1.50
2022-08-05T14:12:17.643Z,1.00
2022-08-05T14:14:58.899Z,1.27
2022-08-05T14:17:28.284Z,6.97
2022-08-05T14:19:59.641Z,1.17
2022-08-05T14:22:30.420Z,1.93
2022-08-05T14:25:01.047Z,1.33
2022-08-05T14:27:28.299Z,1.75
2022-08-05T14:29:55.338Z,0.88
2022-08-05T14:32:26.959Z,1.85
2022-08-05T14:34:56.880Z,3.25
2022-08-05T14:37:24.292Z,2.53
2022-08-05T14:40:11.057Z,0.93
2022-08-05T14:42:41.426Z,1.40
2022-08-05T14:45:10.045Z,0.80
2022-08-05T14:48:05.677Z,2.25
2022-08-05T14:50:25.411Z,1.30
2022-08-05T14:52:58.303Z,0.35
2022-08-05T14:55:25.377Z,0.85
2022-08-05T14:57:54.459Z,3.17
2022-08-05T15:00:27.939Z,3.63
2022-08-05T15:02:56.122Z,2.53
2022-08-05T15:05:30.042Z,1.58
2022-08-05T15:08:15.913Z,1.42
2022-08-05T15:10:46.044Z,1.53
2022-08-05T15:13:13.614Z,2.28
2022-08-05T15:15:55.522Z,2.35
2022-08-05T15:18:22.969Z,4.60
2022-08-05T15:20:51.151Z,0.98
2022-08-05T15:23:17.916Z,2.50
2022-08-05T15:25:52.375Z,1.70
2022-08-05T15:28:23.047Z,4.00
2022-08-05T15:30:54.001Z,1.58
2022-08-05T15:33:53.774Z,1.13
2022-08-05T15:36:17.459Z,1.85
2022-08-05T15:38:50.689Z,1.65
2022-08-05T15:41:58.501Z,1.45
2022-08-05T15:44:23.757Z,2.03
2022-08-05T15:46:50.683Z,1.80
2022-08-05T15:49:27.413Z,1.23
2022-08-05T15:52:16.130Z,2.97
2022-08-05T15:54:43.764Z,3.75
2022-08-05T15:57:10.550Z,3.00
2022-08-05T15:59:38.255Z,2.28
2022-08-05T16:02:09.880Z,4.65
2022-08-05T16:04:41.239Z,1.98
2022-08-05T16:07:10.696Z,1.75
2022-08-05T16:09:37.482Z,4.45
2022-08-05T16:12:08.387Z,3.33
2022-08-05T16:14:34.917Z,2.58
2022-08-05T16:17:01.569Z,3.08
2022-08-05T16:20:07.734Z,1.73
2022-08-05T16:22:17.364Z,1.90
2022-08-05T16:24:51.202Z,0.80
2022-08-05T16:27:18.686Z,2.45
2022-08-05T16:29:50.000Z,2.80
2022-08-05T16:32:17.717Z,3.25
2022-08-05T16:34:54.986Z,2.38
2022-08-05T16:38:01.800Z,3.35
2022-08-05T16:40:24.745Z,2.67
2022-08-05T16:42:52.252Z,1.50
2022-08-05T16:46:05.267Z,4.47
2022-08-05T16:48:05.440Z,1.40
2022-08-05T16:50:31.983Z,3.22
2022-08-05T16:53:12.030Z,1.00
2022-08-05T16:55:47.513Z,5.38
2022-08-05T16:58:14.364Z,1.95
2022-08-05T17:00:40.954Z,2.72
2022-08-05T17:03:15.422Z,2.47
2022-08-05T17:05:51.769Z,2.15
2022-08-05T17:08:36.409Z,2.28
2022-08-05T17:11:08.715Z,2.35
2022-08-05T17:13:37.034Z,2.58
2022-08-05T17:16:26.779Z,4.13
2022-08-05T17:18:51.611Z,3.28
2022-08-05T17:21:18.093Z,2.85
2022-08-05T17:24:04.347Z,3.90
2022-08-05T17:26:33.699Z,1.98
2022-08-05T17:29:00.218Z,3.75
2022-08-05T17:31:56.523Z,3.53
2022-08-05T17:34:20.418Z,4.90
2022-08-05T17:36:56.807Z,2.25
2022-08-05T17:39:33.413Z,4.45
2022-08-05T17:42:17.352Z,3.83
2022-08-05T17:44:51.076Z,2.95
2022-08-05T17:47:22.086Z,5.68
2022-08-05T17:50:00.493Z,3.72
2022-08-05T17:52:31.116Z,5.35
2022-08-05T17:54:59.089Z,2.92
2022-08-05T17:57:25.570Z,2.08
2022-08-05T18:00:04.961Z,3.35
2022-08-05T18:02:32.331Z,2.60
2022-08-05T18:05:02.833Z,0.95
2022-08-05T18:07:40.915Z,3.35
2022-08-05T18:10:11.020Z,4.95
2022-08-05T18:12:37.981Z,1.05
2022-08-05T18:15:05.116Z,1.95
2022-08-05T18:17:58.812Z,2.08
2022-08-05T18:20:19.486Z,2.30
2022-08-05T18:22:57.257Z,6.32
2022-08-05T18:25:25.487Z,1.92
2022-08-05T18:28:01.520Z,2.78
2022-08-05T18:30:31.169Z,4.53
2022-08-05T18:33:00.909Z,4.32
2022-08-05T18:35:28.408Z,2.85
2022-08-05T18:38:16.479Z,6.35
2022-08-05T18:41:57.139Z,2.90
2022-08-05T18:43:37.907Z,1.80
2022-08-05T18:46:06.781Z,4.78
2022-08-05T18:48:36.728Z,1.17
2022-08-05T18:52:06.033Z,4.55
2022-08-05T18:54:13.536Z,6.00
2022-08-05T18:56:41.846Z,6.60
2022-08-05T18:59:43.895Z,3.28
2022-08-05T19:02:04.521Z,3.38
2022-08-05T19:05:02.153Z,3.58
2022-08-05T19:07:24.768Z,3.78
2022-08-05T19:09:56.608Z,3.25
2022-08-05T19:12:24.615Z,2.83
2022-08-05T19:14:59.708Z,2.83
2022-08-05T19:17:28.555Z,4.10
2022-08-05T19:20:15.098Z,6.45
2022-08-05T19:22:42.308Z,3.30
2022-08-05T19:25:09.622Z,4.72
2022-08-05T19:27:37.553Z,3.28
2022-08-05T19:30:07.045Z,4.30
2022-08-05T19:32:33.642Z,2.67
2022-08-05T19:35:00.234Z,5.60
2022-08-05T19:37:34.946Z,4.15
2022-08-05T19:40:19.202Z,4.70
2022-08-05T19:43:04.634Z,3.42
2022-08-05T19:45:33.315Z,3.35
2022-08-05T19:48:03.825Z,5.38
2022-08-05T19:50:31.947Z,5.65
2022-08-05T19:52:58.602Z,4.07
2022-08-05T19:56:13.727Z,2.75
2022-08-05T19:58:29.156Z,6.57
2022-08-05T20:00:56.545Z,2.75
2022-08-05T20:03:25.368Z,4.15
2022-08-05T20:05:56.563Z,5.75
2022-08-05T20:08:24.836Z,5.13
2022-08-05T20:10:51.904Z,5.30
2022-08-05T20:13:25.823Z,5.40
2022-08-05T20:16:06.914Z,9.57
2022-08-05T20:18:36.299Z,1.58
2022-08-05T20:21:04.709Z,4.05
2022-08-05T20:23:40.409Z,6.03
2022-08-05T20:26:18.211Z,2.33
2022-08-05T20:28:45.218Z,2.25
2022-08-05T20:31:13.107Z,5.20
2022-08-05T20:33:42.597Z,2.05
2022-08-05T20:36:10.070Z,4.30
2022-08-05T20:38:37.681Z,3.30
2022-08-05T20:41:08.168Z,6.72
2022-08-05T20:44:00.037Z,3.47
2022-08-05T20:46:24.933Z,3.35
2022-08-05T20:48:52.069Z,2.90
2022-08-05T20:51:18.622Z,2.38
2022-08-05T20:53:56.407Z,2.50
2022-08-05T20:56:28.863Z,3.90
2022-08-05T20:58:56.675Z,3.33
2022-08-05T21:01:31.222Z,3.53
2022-08-05T21:04:07.228Z,3.25
2022-08-05T21:06:36.788Z,3.10
2022-08-05T21:09:04.671Z,2.70
2022-08-05T21:12:10.587Z,5.93
2022-08-05T21:14:18.662Z,6.47
2022-08-05T21:16:46.844Z,1.00
2022-08-05T21:19:13.375Z,4.95
2022-08-05T21:21:50.303Z,3.75
2022-08-05T21:24:19.653Z,6.80
2022-08-05T21:26:53.660Z,3.45
2022-08-05T21:29:26.690Z,4.75
2022-08-05T21:32:00.168Z,2.03
2022-08-05T21:34:28.229Z,8.68
2022-08-05T21:36:54.900Z,4.78
2022-08-05T21:39:26.897Z,5.43
2022-08-05T21:42:02.169Z,2.92
2022-08-05T21:44:29.001Z,3.63
2022-08-05T21:46:58.275Z,2.17
2022-08-05T21:50:00.414Z,3.17
2022-08-05T21:52:21.732Z,3.45
2022-08-05T21:54:55.007Z,5.30
2022-08-05T21:57:31.235Z,4.13
2022-08-05T22:00:05.904Z,3.60
2022-08-05T22:02:33.682Z,4.93
2022-08-05T22:05:01.591Z,5.32
2022-08-05T22:07:40.101Z,2.35
2022-08-05T22:10:17.873Z,6.35
2022-08-05T22:12:53.345Z,2.67
2022-08-05T22:16:02.156Z,3.53
2022-08-05T22:18:06.910Z,5.40
2022-08-05T22:20:39.076Z,4.95
2022-08-05T22:23:24.872Z,5.78
2022-08-05T22:26:29.963Z,4.20
2022-08-05T22:28:56.476Z,2.40
2022-08-05T22:31:23.025Z,3.53
2022-08-05T22:33:58.571Z,3.13
2022-08-05T22:36:29.532Z,3.38
2022-08-05T22:38:56.721Z,1.27
2022-08-05T22:42:05.538Z,2.83
2022-08-05T22:44:10.116Z,3.15
2022-08-05T22:46:39.722Z,2.45
2022-08-05T22:49:07.332Z,4.50
2022-08-05T22:52:05.692Z,5.45
2022-08-05T22:54:26.963Z,7.00
2022-08-05T22:56:54.465Z,6.25
2022-08-05T22:59:43.693Z,3.65
2022-08-05T23:02:08.605Z,2.85
2022-08-05T23:04:35.862Z,2.63
2022-08-05T23:07:03.956Z,5.28
2022-08-05T23:09:57.636Z,3.25
2022-08-05T23:12:24.082Z,5.03
2022-08-05T23:14:51.041Z,3.05
2022-08-05T23:17:24.170Z,3.50
2022-08-05T23:19:56.101Z,7.85
2022-08-05T23:22:27.146Z,2.13
2022-08-05T23:24:54.417Z,5.20
2022-08-05T23:27:21.031Z,3.97
2022-08-05T23:29:50.693Z,5.15
2022-08-05T23:32:22.936Z,9.43
2022-08-05T23:34:49.917Z,6.05
2022-08-05T23:37:17.499Z,4.00
2022-08-05T23:39:54.441Z,7.07
2022-08-05T23:42:23.603Z,5.85
2022-08-05T23:44:55.989Z,6.07
2022-08-05T23:47:22.490Z,3.75
2022-08-05T23:49:52.136Z,5.35
2022-08-05T23:52:32.622Z,5.78
2022-08-05T23:55:07.110Z,6.38
2022-08-05T23:57:35.875Z,4.88
